sensor_id;sensor_type;location;lat;lon;timestamp;pressure;altitude;pressure_sealevel;temperature;humidity
75923;BME280;64602;47.542;19.090;2023-03-02T07:17:54;100917.78;;;3.35;64.21
75923;BME280;64602;47.542;19.090;2023-03-02T07:22:56;100909.34;;;3.60;62.82
75923;BME280;64602;47.542;19.090;2023-03-02T07:27:58;100914.87;;;3.80;61.67
75923;BME280;64602;47.542;19.090;2023-03-02T07:33:00;100902.75;;;3.91;60.77
75923;BME280;64602;47.542;19.090;2023-03-02T07:38:02;100901.87;;;4.12;60.19
75923;BME280;64602;47.542;19.090;2023-03-02T07:43:04;100917.53;;;4.36;58.48
75923;BME280;64602;47.542;19.090;2023-03-02T07:48:07;100904.19;;;4.56;57.98
75923;BME280;64602;47.542;19.090;2023-03-02T07:53:09;100901.81;;;4.81;57.57
75923;BME280;64602;47.542;19.090;2023-03-02T07:58:11;100896.91;;;4.98;56.00
75923;BME280;64602;47.542;19.090;2023-03-02T08:03:13;100880.19;;;5.23;54.48
75923;BME280;64602;47.542;19.090;2023-03-02T08:08:15;100883.31;;;5.53;53.17
75923;BME280;64602;47.542;19.090;2023-03-02T08:13:17;100894.13;;;5.99;51.49
75923;BME280;64602;47.542;19.090;2023-03-02T08:18:19;100886.81;;;6.20;49.59
75923;BME280;64602;47.542;19.090;2023-03-02T08:23:22;100886.94;;;6.58;48.85
75923;BME280;64602;47.542;19.090;2023-03-02T08:28:24;100894.94;;;6.78;47.14
75923;BME280;64602;47.542;19.090;2023-03-02T08:33:27;100894.78;;;7.05;45.52
75923;BME280;64602;47.542;19.090;2023-03-02T08:38:30;100899.59;;;7.35;44.72
75923;BME280;64602;47.542;19.090;2023-03-02T08:43:33;100888.91;;;7.71;44.69
75923;BME280;64602;47.542;19.090;2023-03-02T08:48:35;100882.19;;;7.81;44.29
75923;BME280;64602;47.542;19.090;2023-03-02T08:53:40;100888.78;;;8.10;43.91
75923;BME280;64602;47.542;19.090;2023-03-02T08:58:42;100869.25;;;8.08;41.90
75923;BME280;64602;47.542;19.090;2023-03-02T09:03:44;100884.16;;;8.54;41.67
75923;BME280;64602;47.542;19.090;2023-03-02T09:08:47;100882.06;;;8.74;40.80
75923;BME280;64602;47.542;19.090;2023-03-02T09:13:49;100875.91;;;8.97;40.47
75923;BME280;64602;47.542;19.090;2023-03-02T09:18:52;100869.25;;;9.12;40.28
75923;BME280;64602;47.542;19.090;2023-03-02T09:23:55;100872.00;;;9.24;39.43
75923;BME280;64602;47.542;19.090;2023-03-02T09:28:59;100867.97;;;9.80;39.18
75923;BME280;64602;47.542;19.090;2023-03-02T09:34:01;100863.50;;;9.97;37.83
75923;BME280;64602;47.542;19.090;2023-03-02T09:39:04;100848.03;;;10.10;37.65
75923;BME280;64602;47.542;19.090;2023-03-02T09:44:34;100852.16;;;10.36;37.05
75923;BME280;64602;47.542;19.090;2023-03-02T09:55:23;100853.19;;;11.32;35.38
75923;BME280;64602;47.542;19.090;2023-03-02T10:00:35;100851.72;;;11.42;35.94
75923;BME280;64602;47.542;19.090;2023-03-02T10:05:41;100845.62;;;11.68;35.20
75923;BME280;64602;47.542;19.090;2023-03-02T10:10:48;100833.50;;;11.93;35.23
75923;BME280;64602;47.542;19.090;2023-03-02T10:21:11;100833.09;;;12.89;33.76
75923;BME280;64602;47.542;19.090;2023-03-02T10:26:24;100826.50;;;13.44;32.07
75923;BME280;64602;47.542;19.090;2023-03-02T10:31:30;100827.13;;;14.42;31.57
75923;BME280;64602;47.542;19.090;2023-03-02T10:36:39;100824.84;;;15.02;29.28
75923;BME280;64602;47.542;19.090;2023-03-02T10:42:18;100824.06;;;15.22;29.71
75923;BME280;64602;47.542;19.090;2023-03-02T10:47:25;100832.50;;;17.22;28.51
75923;BME280;64602;47.542;19.090;2023-03-02T10:52:28;100815.34;;;17.45;27.37
75923;BME280;64602;47.542;19.090;2023-03-02T10:57:35;100819.87;;;19.70;26.45
75923;BME280;64602;47.542;19.090;2023-03-02T11:02:37;100821.41;;;19.25;25.49
75923;BME280;64602;47.542;19.090;2023-03-02T11:12:59;100797.53;;;22.96;22.18
75923;BME280;64602;47.542;19.090;2023-03-02T11:18:25;100801.84;;;27.64;17.15
75923;BME280;64602;47.542;19.090;2023-03-02T11:28:45;100793.59;;;36.00;11.27
75923;BME280;64602;47.542;19.090;2023-03-02T11:34:09;100787.22;;;36.34;10.76
75923;BME280;64602;47.542;19.090;2023-03-02T11:39:25;100785.59;;;36.36;10.69
75923;BME280;64602;47.542;19.090;2023-03-02T11:44:29;100780.13;;;36.91;10.26
75923;BME280;64602;47.542;19.090;2023-03-02T11:49:38;100783.41;;;38.21;9.69
75923;BME280;64602;47.542;19.090;2023-03-02T11:54:44;100764.16;;;35.94;11.35
75923;BME280;64602;47.542;19.090;2023-03-02T11:59:48;100762.34;;;36.90;10.40
75923;BME280;64602;47.542;19.090;2023-03-02T12:05:07;100757.28;;;36.74;10.91
75923;BME280;64602;47.542;19.090;2023-03-02T12:10:55;100741.31;;;33.94;12.53
75923;BME280;64602;47.542;19.090;2023-03-02T12:15:55;100727.94;;;32.25;13.96
75923;BME280;64602;47.542;19.090;2023-03-02T12:21:09;100731.78;;;32.65;14.36
75923;BME280;64602;47.542;19.090;2023-03-02T12:31:20;100716.28;;;30.89;15.34
75923;BME280;64602;47.542;19.090;2023-03-02T12:36:30;100709.19;;;27.11;18.72
75923;BME280;64602;47.542;19.090;2023-03-02T12:41:56;100707.91;;;28.51;17.76
75923;BME280;64602;47.542;19.090;2023-03-02T12:47:11;100715.47;;;30.88;15.55
75923;BME280;64602;47.542;19.090;2023-03-02T12:52:35;100688.00;;;25.97;19.45
75923;BME280;64602;47.542;19.090;2023-03-02T12:57:49;100683.34;;;23.25;22.88
75923;BME280;64602;47.542;19.090;2023-03-02T13:02:53;100699.03;;;29.73;16.62
75923;BME280;64602;47.542;19.090;2023-03-02T13:08:03;100687.19;;;31.01;15.17
75923;BME280;64602;47.542;19.090;2023-03-02T13:18:28;100668.91;;;29.17;16.67
75923;BME280;64602;47.542;19.090;2023-03-02T13:23:33;100679.34;;;33.83;12.86
75923;BME280;64602;47.542;19.090;2023-03-02T13:28:37;100671.84;;;35.39;11.81
75923;BME280;64602;47.542;19.090;2023-03-02T13:33:43;100671.50;;;35.29;11.27
75923;BME280;64602;47.542;19.090;2023-03-02T13:38:51;100662.00;;;35.61;11.41
75923;BME280;64602;47.542;19.090;2023-03-02T13:43:55;100656.44;;;34.91;12.06
75923;BME280;64602;47.542;19.090;2023-03-02T13:49:00;100654.44;;;35.44;11.98
75923;BME280;64602;47.542;19.090;2023-03-02T13:59:22;100621.75;;;34.17;12.60
75923;BME280;64602;47.542;19.090;2023-03-02T14:04:24;100615.44;;;33.05;13.49
75923;BME280;64602;47.542;19.090;2023-03-02T14:09:27;100624.25;;;32.96;13.65
75923;BME280;64602;47.542;19.090;2023-03-02T14:14:38;100603.97;;;30.71;15.31
75923;BME280;64602;47.542;19.090;2023-03-02T14:19:41;100596.91;;;31.81;14.18
75923;BME280;64602;47.542;19.090;2023-03-02T14:24:43;100580.41;;;28.20;18.05
75923;BME280;64602;47.542;19.090;2023-03-02T14:29:46;100571.50;;;21.92;23.23
75923;BME280;64602;47.542;19.090;2023-03-02T14:34:49;100546.47;;;19.00;27.28
75923;BME280;64602;47.542;19.090;2023-03-02T14:39:51;100565.00;;;22.14;24.26
75923;BME280;64602;47.542;19.090;2023-03-02T14:44:56;100571.66;;;25.87;19.38
75923;BME280;64602;47.542;19.090;2023-03-02T14:50:00;100571.16;;;23.99;21.60
75923;BME280;64602;47.542;19.090;2023-03-02T14:55:12;100580.44;;;26.58;19.08
75923;BME280;64602;47.542;19.090;2023-03-02T15:00:16;100571.97;;;29.48;16.17
75923;BME280;64602;47.542;19.090;2023-03-02T15:05:18;100562.59;;;30.54;15.51
75923;BME280;64602;47.542;19.090;2023-03-02T15:10:21;100567.28;;;29.55;16.10
75923;BME280;64602;47.542;19.090;2023-03-02T15:15:23;100556.34;;;28.97;16.46
75923;BME280;64602;47.542;19.090;2023-03-02T15:20:27;100572.16;;;28.66;16.77
75923;BME280;64602;47.542;19.090;2023-03-02T15:25:30;100557.25;;;28.39;17.03
75923;BME280;64602;47.542;19.090;2023-03-02T15:30:33;100560.47;;;27.00;18.25
75923;BME280;64602;47.542;19.090;2023-03-02T15:35:37;100558.22;;;25.89;19.30
75923;BME280;64602;47.542;19.090;2023-03-02T15:40:39;100558.72;;;24.05;21.23
75923;BME280;64602;47.542;19.090;2023-03-02T15:45:45;100553.47;;;23.02;22.31
75923;BME280;64602;47.542;19.090;2023-03-02T15:51:01;100556.22;;;20.35;25.45
75923;BME280;64602;47.542;19.090;2023-03-02T15:56:05;100555.25;;;19.94;26.28
75923;BME280;64602;47.542;19.090;2023-03-02T16:01:09;100543.09;;;17.24;30.40
75923;BME280;64602;47.542;19.090;2023-03-02T16:06:12;100547.69;;;15.78;32.90
75923;BME280;64602;47.542;19.090;2023-03-02T16:11:16;100542.59;;;14.81;34.47
75923;BME280;64602;47.542;19.090;2023-03-02T16:16:24;100553.22;;;14.10;36.08
75923;BME280;64602;47.542;19.090;2023-03-02T16:21:27;100561.56;;;13.58;37.16
75923;BME280;64602;47.542;19.090;2023-03-02T16:26:35;100562.37;;;13.05;38.45
75923;BME280;64602;47.542;19.090;2023-03-02T16:31:38;100553.88;;;12.54;39.59
75923;BME280;64602;47.542;19.090;2023-03-02T16:36:41;100558.25;;;12.23;40.57
75923;BME280;64602;47.542;19.090;2023-03-02T16:41:43;100554.88;;;11.84;41.75
75923;BME280;64602;47.542;19.090;2023-03-02T16:46:47;100566.88;;;11.61;42.37
75923;BME280;64602;47.542;19.090;2023-03-02T16:51:49;100572.87;;;11.41;43.07
75923;BME280;64602;47.542;19.090;2023-03-02T16:56:51;100575.56;;;11.19;43.63
75923;BME280;64602;47.542;19.090;2023-03-02T17:01:53;100586.81;;;11.05;44.31
75923;BME280;64602;47.542;19.090;2023-03-02T17:06:55;100584.56;;;10.80;45.08
75923;BME280;64602;47.542;19.090;2023-03-02T17:12:02;100587.84;;;10.65;45.74
75923;BME280;64602;47.542;19.090;2023-03-02T17:17:05;100592.63;;;10.58;46.37
75923;BME280;64602;47.542;19.090;2023-03-02T17:22:08;100598.28;;;10.40;47.56
75923;BME280;64602;47.542;19.090;2023-03-02T17:27:10;100588.47;;;10.22;47.57
75923;BME280;64602;47.542;19.090;2023-03-02T17:32:26;100589.84;;;10.08;48.02
75923;BME280;64602;47.542;19.090;2023-03-02T17:37:28;100599.53;;;10.03;48.53
75923;BME280;64602;47.542;19.090;2023-03-02T17:42:31;100591.84;;;9.83;49.38
75923;BME280;64602;47.542;19.090;2023-03-02T17:47:34;100608.34;;;9.82;49.88
75923;BME280;64602;47.542;19.090;2023-03-02T17:52:36;100601.25;;;9.52;50.88
75923;BME280;64602;47.542;19.090;2023-03-02T17:57:39;100603.41;;;9.38;50.99
75923;BME280;64602;47.542;19.090;2023-03-02T18:02:41;100617.91;;;9.32;50.83
75923;BME280;64602;47.542;19.090;2023-03-02T18:07:44;100612.12;;;9.17;51.25
75923;BME280;64602;47.542;19.090;2023-03-02T18:12:46;100624.63;;;9.06;51.68
75923;BME280;64602;47.542;19.090;2023-03-02T18:17:49;100625.22;;;8.96;52.20
75923;BME280;64602;47.542;19.090;2023-03-02T18:22:51;100606.16;;;8.80;52.48
75923;BME280;64602;47.542;19.090;2023-03-02T18:27:53;100606.25;;;8.73;52.87
75923;BME280;64602;47.542;19.090;2023-03-02T18:32:56;100605.56;;;8.66;52.86
75923;BME280;64602;47.542;19.090;2023-03-02T18:37:58;100612.03;;;8.65;53.41
75923;BME280;64602;47.542;19.090;2023-03-02T18:43:00;100603.53;;;8.49;53.69
75923;BME280;64602;47.542;19.090;2023-03-02T18:48:03;100604.94;;;8.40;54.19
75923;BME280;64602;47.542;19.090;2023-03-02T18:53:05;100620.31;;;8.40;54.94
75923;BME280;64602;47.542;19.090;2023-03-02T18:58:16;100623.34;;;8.31;55.21
75923;BME280;64602;47.542;19.090;2023-03-02T19:03:19;100620.59;;;8.20;55.64
75923;BME280;64602;47.542;19.090;2023-03-02T19:08:22;100606.69;;;8.04;55.93
75923;BME280;64602;47.542;19.090;2023-03-02T19:13:25;100609.00;;;8.01;56.01
75923;BME280;64602;47.542;19.090;2023-03-02T19:18:27;100599.13;;;7.95;56.41
75923;BME280;64602;47.542;19.090;2023-03-02T19:23:30;100618.28;;;7.93;56.86
75923;BME280;64602;47.542;19.090;2023-03-02T19:28:33;100631.19;;;7.91;57.13
75923;BME280;64602;47.542;19.090;2023-03-02T19:33:36;100623.63;;;7.81;57.49
75923;BME280;64602;47.542;19.090;2023-03-02T19:38:39;100608.88;;;7.65;58.19
75923;BME280;64602;47.542;19.090;2023-03-02T19:43:46;100613.47;;;7.65;58.17
75923;BME280;64602;47.542;19.090;2023-03-02T19:48:49;100631.53;;;7.64;58.91
75923;BME280;64602;47.542;19.090;2023-03-02T19:53:51;100635.34;;;7.57;59.41
75923;BME280;64602;47.542;19.090;2023-03-02T19:58:53;100643.38;;;7.45;59.98
75923;BME280;64602;47.542;19.090;2023-03-02T20:03:56;100632.06;;;7.18;60.44
75923;BME280;64602;47.542;19.090;2023-03-02T20:09:02;100626.69;;;6.93;61.22
75923;BME280;64602;47.542;19.090;2023-03-02T20:14:05;100638.16;;;6.88;61.43
75923;BME280;64602;47.542;19.090;2023-03-02T20:19:07;100634.59;;;6.69;62.08
75923;BME280;64602;47.542;19.090;2023-03-02T20:24:09;100632.41;;;6.53;62.37
75923;BME280;64602;47.542;19.090;2023-03-02T20:29:13;100631.31;;;6.35;62.91
75923;BME280;64602;47.542;19.090;2023-03-02T20:34:15;100643.34;;;6.33;63.56
75923;BME280;64602;47.542;19.090;2023-03-02T20:39:21;100648.56;;;6.28;63.64
75923;BME280;64602;47.542;19.090;2023-03-02T20:44:24;100639.75;;;6.14;64.09
75923;BME280;64602;47.542;19.090;2023-03-02T20:49:29;100647.03;;;6.07;64.04
75923;BME280;64602;47.542;19.090;2023-03-02T20:54:36;100647.09;;;5.93;64.47
75923;BME280;64602;47.542;19.090;2023-03-02T20:59:39;100639.84;;;5.94;64.54
